Hummels Wharf, Pennsylvania
Current Conditions -  °F | °C
As of 7:53 AM on Saturday 22 Nov 2014 (Local Time) from KSEG Reporting Station
Clear Clear  
Wind Chill: 16°   Ceiling: Unl
Heat Index: 16°   Visibility: 7mi
Dew Point: 12°   Wind: 0mph
Humidity: 84%   Direction: NA
Pressure: 30.46"   Gusts: NA
Location:  40.83°N, 76.84°W
Report Text: KSEG 221253Z AUTO 00000KT 7SM CLR M09/M11 A3046 RMK AO2 SLP321 T10891111
Loading
Personal Weather Stations






























Interactive Weather Map New forecast layout! Learn more

10-Day Weather Forecast

Advertisements
Track Severe Weather on mobile